createdAt,value
2022-12-17T00:01:03.056Z,28.50
2022-12-17T00:02:23.997Z,31.33
2022-12-17T00:03:45.206Z,29.60
2022-12-17T00:05:06.376Z,29.33
2022-12-17T00:06:27.108Z,29.98
2022-12-17T00:07:47.760Z,33.83
2022-12-17T00:09:08.452Z,31.60
2022-12-17T00:10:29.665Z,30.25
2022-12-17T00:11:50.743Z,29.08
2022-12-17T00:13:13.123Z,30.58
2022-12-17T00:14:33.992Z,33.70
2022-12-17T00:15:54.677Z,32.15
2022-12-17T00:17:17.334Z,31.65
2022-12-17T00:18:37.995Z,31.45
2022-12-17T00:19:58.743Z,34.58
2022-12-17T00:21:20.411Z,32.70
2022-12-17T00:22:41.115Z,39.17
2022-12-17T00:24:01.983Z,31.95
2022-12-17T00:25:23.387Z,30.73
2022-12-17T00:26:44.215Z,30.52
2022-12-17T00:28:05.138Z,37.40
2022-12-17T00:29:26.160Z,34.33
2022-12-17T00:30:46.852Z,39.85
2022-12-17T00:32:07.659Z,44.97
2022-12-17T00:33:30.658Z,41.00
2022-12-17T00:34:51.387Z,42.92
2022-12-17T00:36:12.858Z,46.42
2022-12-17T00:37:33.538Z,50.85
2022-12-17T00:38:54.299Z,43.75
2022-12-17T00:40:17.612Z,46.08
2022-12-17T00:41:39.521Z,42.92
2022-12-17T00:43:00.243Z,36.58
2022-12-17T00:44:21.916Z,41.33
2022-12-17T00:45:42.986Z,43.75
2022-12-17T00:47:04.108Z,43.88
2022-12-17T00:48:25.846Z,45.38
2022-12-17T00:49:47.059Z,41.80
2022-12-17T00:51:07.867Z,40.53
2022-12-17T00:52:28.880Z,36.28
2022-12-17T00:53:49.882Z,40.38
2022-12-17T00:55:10.590Z,42.13
2022-12-17T00:56:31.764Z,49.88
2022-12-17T00:57:52.395Z,44.45
2022-12-17T00:59:13.525Z,49.97
2022-12-17T01:00:34.453Z,42.88
2022-12-17T01:01:55.295Z,41.75
2022-12-17T01:03:30.052Z,39.22
2022-12-17T01:04:52.156Z,45.10
2022-12-17T01:06:13.783Z,39.78
2022-12-17T01:07:34.856Z,42.78
2022-12-17T01:08:56.381Z,44.35
2022-12-17T01:10:17.189Z,43.28
2022-12-17T01:11:38.005Z,42.55
2022-12-17T01:12:58.554Z,50.72
2022-12-17T01:14:19.509Z,49.50
2022-12-17T01:15:47.687Z,51.05
2022-12-17T01:17:08.460Z,49.50
2022-12-17T01:18:36.590Z,55.60
2022-12-17T01:19:57.590Z,54.63
2022-12-17T01:21:18.507Z,48.13
2022-12-17T01:22:39.388Z,54.72
2022-12-17T01:24:01.353Z,57.03
2022-12-17T01:25:22.682Z,51.42
2022-12-17T01:26:43.787Z,52.30
2022-12-17T01:28:07.477Z,55.40
2022-12-17T01:29:28.305Z,49.70
2022-12-17T01:30:49.923Z,42.88
2022-12-17T01:32:10.943Z,47.25
2022-12-17T01:33:31.586Z,48.25
2022-12-17T01:34:52.391Z,45.53
2022-12-17T01:36:17.267Z,50.08
2022-12-17T01:37:38.534Z,50.25
2022-12-17T01:38:59.789Z,42.97
2022-12-17T01:40:20.750Z,48.40
2022-12-17T01:41:41.488Z,52.05
2022-12-17T01:43:05.295Z,49.53
2022-12-17T01:45:00.341Z,48.60
2022-12-17T01:46:21.337Z,45.15
2022-12-17T01:47:44.703Z,40.30
2022-12-17T01:49:06.750Z,45.33
2022-12-17T01:50:28.161Z,47.80
2022-12-17T01:51:52.032Z,47.03
2022-12-17T01:53:16.142Z,48.65
2022-12-17T01:54:37.728Z,45.95
2022-12-17T01:55:59.114Z,50.13
2022-12-17T01:57:23.258Z,45.35
2022-12-17T01:58:44.293Z,51.05
2022-12-17T02:00:08.658Z,50.50
2022-12-17T02:01:35.505Z,40.97
2022-12-17T02:02:56.581Z,48.03
2022-12-17T02:04:17.844Z,37.30
2022-12-17T02:05:41.801Z,49.00
2022-12-17T02:07:29.632Z,45.47
2022-12-17T02:08:58.074Z,40.05
2022-12-17T02:10:29.522Z,39.00
2022-12-17T02:12:10.665Z,43.08
2022-12-17T02:13:40.692Z,37.38
2022-12-17T02:15:09.535Z,35.55
2022-12-17T02:16:51.489Z,38.80
2022-12-17T02:18:16.461Z,44.90
2022-12-17T02:19:55.172Z,40.67
2022-12-17T02:21:17.392Z,36.17
2022-12-17T02:23:13.782Z,35.42
2022-12-17T02:24:37.366Z,40.72
2022-12-17T02:26:16.546Z,46.90
2022-12-17T02:27:38.246Z,41.95
2022-12-17T02:29:05.046Z,44.20
2022-12-17T02:30:27.331Z,39.00
2022-12-17T02:31:50.808Z,41.28
2022-12-17T02:33:13.443Z,37.10
2022-12-17T02:34:37.084Z,38.05
2022-12-17T02:36:10.029Z,35.70
2022-12-17T02:37:31.683Z,39.83
2022-12-17T02:38:53.001Z,32.67
2022-12-17T02:40:15.691Z,36.58
2022-12-17T02:41:53.876Z,31.42
2022-12-17T02:43:15.163Z,46.35
2022-12-17T02:44:39.273Z,30.30
2022-12-17T02:46:01.771Z,34.22
2022-12-17T02:47:27.236Z,30.45
2022-12-17T02:48:48.624Z,36.28
2022-12-17T02:50:09.661Z,23.92
2022-12-17T02:51:31.706Z,31.63
2022-12-17T02:52:56.517Z,32.33
2022-12-17T02:54:21.499Z,31.05
2022-12-17T02:55:42.513Z,31.70
2022-12-17T02:57:03.416Z,26.63
2022-12-17T02:58:24.335Z,30.88
2022-12-17T02:59:45.075Z,30.98
2022-12-17T03:01:09.493Z,31.15
2022-12-17T03:02:31.240Z,28.83
2022-12-17T03:04:02.887Z,27.83
2022-12-17T03:05:44.048Z,21.60
2022-12-17T03:07:05.627Z,28.75
2022-12-17T03:08:26.834Z,34.70
2022-12-17T03:09:47.774Z,27.85
2022-12-17T03:11:08.712Z,31.40
2022-12-17T03:12:29.603Z,36.13
2022-12-17T03:13:51.708Z,31.45
2022-12-17T03:15:13.083Z,34.22
2022-12-17T03:16:37.914Z,32.13
2022-12-17T03:17:59.167Z,33.45
2022-12-17T03:19:20.724Z,34.65
2022-12-17T03:20:41.592Z,31.52
2022-12-17T03:22:03.032Z,28.35
2022-12-17T03:23:28.987Z,31.08
2022-12-17T03:24:50.120Z,30.67
2022-12-17T03:26:11.203Z,29.77
2022-12-17T03:27:32.463Z,24.70
2022-12-17T03:28:53.740Z,25.05
2022-12-17T03:30:14.663Z,26.05
2022-12-17T03:31:35.722Z,30.65
2022-12-17T03:32:56.406Z,22.33
2022-12-17T03:34:17.355Z,21.92
2022-12-17T03:35:38.115Z,26.63
2022-12-17T03:36:58.889Z,25.65
2022-12-17T03:38:19.716Z,19.65
2022-12-17T03:39:40.914Z,24.33
2022-12-17T03:41:01.803Z,23.60
2022-12-17T03:42:22.787Z,23.23
2022-12-17T03:43:43.380Z,32.95
2022-12-17T03:45:04.088Z,24.63
2022-12-17T03:46:25.054Z,27.58
2022-12-17T03:47:46.056Z,33.92
2022-12-17T03:49:07.171Z,27.15
2022-12-17T03:50:28.541Z,28.85
2022-12-17T03:51:49.175Z,20.80
2022-12-17T03:53:10.297Z,25.65
2022-12-17T03:54:31.204Z,27.88
2022-12-17T03:55:52.037Z,23.80
2022-12-17T03:57:16.045Z,22.70
2022-12-17T03:58:37.771Z,18.85
2022-12-17T03:59:58.755Z,25.02
2022-12-17T04:01:19.592Z,28.20
2022-12-17T04:02:40.544Z,20.83
2022-12-17T04:04:01.536Z,25.50
2022-12-17T04:05:22.523Z,23.73
2022-12-17T04:06:43.437Z,26.73
2022-12-17T04:08:04.271Z,24.17
2022-12-17T04:09:26.860Z,20.98
2022-12-17T04:10:47.866Z,19.65
2022-12-17T04:12:08.606Z,18.10
2022-12-17T04:13:29.513Z,20.98
2022-12-17T04:14:50.707Z,22.02
2022-12-17T04:16:11.853Z,20.00
2022-12-17T04:17:32.767Z,27.30
2022-12-17T04:19:13.449Z,23.33
2022-12-17T04:20:34.494Z,25.40
2022-12-17T04:21:55.161Z,18.27
2022-12-17T04:23:17.843Z,24.35
2022-12-17T04:24:38.833Z,23.88
2022-12-17T04:25:59.864Z,24.25
2022-12-17T04:27:20.993Z,19.98
2022-12-17T04:28:42.024Z,19.52
2022-12-17T04:30:08.065Z,22.80
2022-12-17T04:31:28.876Z,22.85
2022-12-17T04:32:49.689Z,22.10
2022-12-17T04:34:10.431Z,25.65
2022-12-17T04:35:31.324Z,33.40
2022-12-17T04:36:52.002Z,23.17
2022-12-17T04:38:13.038Z,22.92
2022-12-17T04:39:33.757Z,27.77
2022-12-17T04:40:54.607Z,22.25
2022-12-17T04:42:15.628Z,26.58
2022-12-17T04:43:36.616Z,28.45
2022-12-17T04:44:57.748Z,24.90
2022-12-17T04:46:18.931Z,24.48
2022-12-17T04:47:40.080Z,24.70
2022-12-17T04:49:00.894Z,21.80
2022-12-17T04:50:22.044Z,23.95
2022-12-17T04:51:43.252Z,24.30
2022-12-17T04:53:04.299Z,30.77
2022-12-17T04:54:25.177Z,26.73
2022-12-17T04:55:46.224Z,29.35
2022-12-17T04:57:06.926Z,27.25
2022-12-17T04:58:28.356Z,23.52
2022-12-17T04:59:48.938Z,23.38
2022-12-17T05:01:11.396Z,26.25
2022-12-17T05:02:32.563Z,26.70
2022-12-17T05:03:53.850Z,29.05
2022-12-17T05:05:14.880Z,25.23
2022-12-17T05:06:52.412Z,18.60
2022-12-17T05:08:14.724Z,25.35
2022-12-17T05:09:35.319Z,25.58
2022-12-17T05:10:56.395Z,21.45
2022-12-17T05:12:17.112Z,26.27
2022-12-17T05:13:38.194Z,22.52
2022-12-17T05:14:59.615Z,21.25
2022-12-17T05:16:20.897Z,22.10
2022-12-17T05:17:41.683Z,25.92
2022-12-17T05:19:02.483Z,24.48
2022-12-17T05:20:24.143Z,26.77
2022-12-17T05:21:45.275Z,19.75
2022-12-17T05:23:06.311Z,21.48
2022-12-17T05:24:27.154Z,20.95
2022-12-17T05:25:47.824Z,24.42
2022-12-17T05:27:08.726Z,19.98
2022-12-17T05:28:29.792Z,23.42
2022-12-17T05:29:50.778Z,24.50
2022-12-17T05:31:13.007Z,23.17
2022-12-17T05:32:33.788Z,19.73
2022-12-17T05:34:11.289Z,18.10
2022-12-17T05:35:32.171Z,15.05
2022-12-17T05:36:53.258Z,15.05
2022-12-17T05:38:14.115Z,22.90
2022-12-17T05:39:48.900Z,22.85
2022-12-17T05:41:09.875Z,19.35
2022-12-17T05:42:30.867Z,20.98
2022-12-17T05:43:51.917Z,26.33
2022-12-17T05:45:13.262Z,21.27
2022-12-17T05:46:34.123Z,24.80
2022-12-17T05:47:55.067Z,22.92
2022-12-17T05:49:16.064Z,22.48
2022-12-17T05:50:37.033Z,21.10
2022-12-17T05:51:57.836Z,22.52
2022-12-17T05:53:24.765Z,23.10
2022-12-17T05:54:45.602Z,21.85
2022-12-17T05:56:11.329Z,20.48
2022-12-17T05:57:32.375Z,21.55
2022-12-17T05:58:53.426Z,24.73
2022-12-17T06:00:14.185Z,23.83
2022-12-17T06:01:35.239Z,22.55
2022-12-17T06:02:56.577Z,25.35
2022-12-17T06:04:17.384Z,27.88
2022-12-17T06:05:38.375Z,22.95
2022-12-17T06:06:59.299Z,25.90
2022-12-17T06:08:25.784Z,21.95
2022-12-17T06:09:46.771Z,25.20
2022-12-17T06:11:07.471Z,23.05
2022-12-17T06:12:28.470Z,25.48
2022-12-17T06:13:49.162Z,25.58
2022-12-17T06:15:12.981Z,22.52
2022-12-17T06:16:33.870Z,21.20
2022-12-17T06:17:55.088Z,19.05
2022-12-17T06:19:16.251Z,17.40
2022-12-17T06:20:38.284Z,22.77
2022-12-17T06:21:59.404Z,19.65
2022-12-17T06:23:22.883Z,24.90
2022-12-17T06:24:46.068Z,18.02
2022-12-17T06:26:07.765Z,24.25
2022-12-17T06:27:28.581Z,21.38
2022-12-17T06:28:49.288Z,22.73
2022-12-17T06:30:13.048Z,20.63
2022-12-17T06:31:38.131Z,17.90
2022-12-17T06:32:58.816Z,20.48
2022-12-17T06:34:19.701Z,23.15
2022-12-17T06:35:40.774Z,18.23
2022-12-17T06:37:01.452Z,21.05
2022-12-17T06:38:25.156Z,21.83
2022-12-17T06:39:46.311Z,20.85
2022-12-17T06:41:08.859Z,16.02
2022-12-17T06:42:29.818Z,18.10
2022-12-17T06:43:50.923Z,15.52
2022-12-17T06:45:11.978Z,18.83
2022-12-17T06:46:33.224Z,19.65
2022-12-17T06:47:54.250Z,19.52
2022-12-17T06:49:15.181Z,13.98
2022-12-17T06:50:36.031Z,15.20
2022-12-17T06:51:57.114Z,14.50
2022-12-17T06:53:23.034Z,14.45
2022-12-17T06:54:48.230Z,16.27
2022-12-17T06:56:09.529Z,12.85
2022-12-17T06:57:30.655Z,14.32
2022-12-17T06:58:51.434Z,14.90
2022-12-17T07:00:12.393Z,15.75
2022-12-17T07:01:33.696Z,15.63
2022-12-17T07:02:54.526Z,16.98
2022-12-17T07:04:15.372Z,15.13
2022-12-17T07:05:36.220Z,16.52
2022-12-17T07:06:56.964Z,10.95
2022-12-17T07:08:19.292Z,14.07
2022-12-17T07:09:40.090Z,16.48
2022-12-17T07:11:00.773Z,19.77
2022-12-17T07:12:21.912Z,12.38
2022-12-17T07:13:42.819Z,13.50
2022-12-17T07:15:03.853Z,17.17
2022-12-17T07:16:24.878Z,13.02
2022-12-17T07:17:45.752Z,15.20
2022-12-17T07:19:10.918Z,14.43
2022-12-17T07:20:31.873Z,18.33
2022-12-17T07:21:53.113Z,14.30
2022-12-17T07:23:14.626Z,12.82
2022-12-17T07:24:35.903Z,17.05
2022-12-17T07:25:57.032Z,17.67
2022-12-17T07:27:17.832Z,14.15
2022-12-17T07:28:38.779Z,10.18
2022-12-17T07:29:59.733Z,13.45
2022-12-17T07:31:20.639Z,12.18
2022-12-17T07:32:41.643Z,13.50
2022-12-17T07:34:02.525Z,9.40
2022-12-17T07:35:23.919Z,11.15
2022-12-17T07:36:44.786Z,10.23
2022-12-17T07:38:05.649Z,12.90
2022-12-17T07:39:26.807Z,11.25
2022-12-17T07:40:47.866Z,11.32
2022-12-17T07:42:09.031Z,10.93
2022-12-17T07:43:31.611Z,9.73
2022-12-17T07:44:52.609Z,11.00
2022-12-17T07:46:13.330Z,16.27
2022-12-17T07:47:34.213Z,16.70
2022-12-17T07:48:55.119Z,16.17
2022-12-17T07:50:15.820Z,10.68
2022-12-17T07:51:37.078Z,13.75
2022-12-17T07:52:57.699Z,17.83
2022-12-17T07:54:18.788Z,11.02
2022-12-17T07:55:39.871Z,13.10
2022-12-17T07:57:00.895Z,10.40
2022-12-17T07:58:24.390Z,15.25
2022-12-17T07:59:45.087Z,14.43
2022-12-17T08:01:06.393Z,10.75
2022-12-17T08:02:29.252Z,14.10
2022-12-17T08:03:50.365Z,13.73
2022-12-17T08:05:11.238Z,11.68
2022-12-17T08:06:32.147Z,13.10
2022-12-17T08:07:52.874Z,13.68
2022-12-17T08:09:14.105Z,11.90
2022-12-17T08:10:35.057Z,14.35
2022-12-17T08:11:55.851Z,12.27
2022-12-17T08:13:21.897Z,11.88
2022-12-17T08:14:42.581Z,11.23
2022-12-17T08:16:03.909Z,13.00
2022-12-17T08:17:24.663Z,13.57
2022-12-17T08:18:46.139Z,16.08
2022-12-17T08:20:07.082Z,14.07
2022-12-17T08:21:28.178Z,13.02
2022-12-17T08:22:49.236Z,13.10
2022-12-17T08:24:10.031Z,12.63
2022-12-17T08:25:30.752Z,10.05
2022-12-17T08:26:51.769Z,12.73
2022-12-17T08:28:48.465Z,12.05
2022-12-17T08:29:58.740Z,13.00
2022-12-17T08:31:19.658Z,12.32
2022-12-17T08:32:40.999Z,12.85
2022-12-17T08:34:07.549Z,11.40
2022-12-17T08:35:28.931Z,13.57
2022-12-17T08:36:57.358Z,11.50
2022-12-17T08:38:25.311Z,14.30
2022-12-17T08:39:45.892Z,28.13
2022-12-17T08:41:08.096Z,22.63
2022-12-17T08:42:28.836Z,17.95
2022-12-17T08:43:49.519Z,19.87
2022-12-17T08:45:10.327Z,23.50
2022-12-17T08:46:31.238Z,19.25
2022-12-17T08:47:52.008Z,17.08
2022-12-17T08:49:13.086Z,17.42
2022-12-17T08:50:34.275Z,16.92
2022-12-17T08:51:55.226Z,15.90
2022-12-17T08:53:21.076Z,14.63
2022-12-17T08:54:42.127Z,14.25
2022-12-17T08:56:02.971Z,13.80
2022-12-17T08:57:31.346Z,12.63
2022-12-17T08:58:58.655Z,13.07
2022-12-17T09:00:20.037Z,14.82
2022-12-17T09:01:40.807Z,11.00
2022-12-17T09:03:01.654Z,14.00
2022-12-17T09:04:23.124Z,12.30
2022-12-17T09:05:44.090Z,11.80
2022-12-17T09:07:04.665Z,19.77
2022-12-17T09:08:26.072Z,13.57
2022-12-17T09:09:47.150Z,13.55
2022-12-17T09:11:08.950Z,11.98
2022-12-17T09:12:30.051Z,10.95
2022-12-17T09:13:51.266Z,12.70
2022-12-17T09:15:11.916Z,14.25
2022-12-17T09:16:33.027Z,11.70
2022-12-17T09:17:53.903Z,14.38
2022-12-17T09:19:15.072Z,14.38
2022-12-17T09:20:35.939Z,15.60
2022-12-17T09:21:56.890Z,13.45
2022-12-17T09:23:17.723Z,12.02
2022-12-17T09:24:38.287Z,14.48
2022-12-17T09:25:59.193Z,16.73
2022-12-17T09:27:19.999Z,15.25
2022-12-17T09:28:41.048Z,15.80
2022-12-17T09:30:01.749Z,16.88
2022-12-17T09:31:22.864Z,15.65
2022-12-17T09:32:43.835Z,13.13
2022-12-17T09:34:05.187Z,15.75
2022-12-17T09:35:26.482Z,15.05
2022-12-17T09:36:51.177Z,12.70
2022-12-17T09:38:16.393Z,12.82
2022-12-17T09:39:37.461Z,18.92
2022-12-17T09:40:59.706Z,16.70
2022-12-17T09:42:38.285Z,18.25
2022-12-17T09:44:22.411Z,14.45
2022-12-17T09:45:54.245Z,11.60
2022-12-17T09:47:45.180Z,13.50
2022-12-17T09:49:27.920Z,13.63
2022-12-17T09:50:49.380Z,16.30
2022-12-17T09:52:10.223Z,20.60
2022-12-17T09:53:59.658Z,23.70
2022-12-17T09:55:21.892Z,15.68
2022-12-17T09:56:47.055Z,17.15
2022-12-17T09:58:08.951Z,15.00
2022-12-17T09:59:41.468Z,17.17
2022-12-17T10:01:02.274Z,15.68
2022-12-17T10:02:37.827Z,17.65
2022-12-17T10:04:02.803Z,21.35
2022-12-17T10:05:31.096Z,28.92
2022-12-17T10:06:53.645Z,21.60
2022-12-17T10:08:14.537Z,28.60
2022-12-17T10:09:37.502Z,27.08
2022-12-17T10:11:05.421Z,24.02
2022-12-17T10:12:33.739Z,28.17
2022-12-17T10:13:54.672Z,25.20
2022-12-17T10:15:15.800Z,21.60
2022-12-17T10:16:45.668Z,27.10
2022-12-17T10:18:06.479Z,24.67
2022-12-17T10:19:39.842Z,29.67
2022-12-17T10:21:24.621Z,29.98
2022-12-17T10:22:46.026Z,39.28
2022-12-17T10:24:07.088Z,30.70
2022-12-17T10:25:35.657Z,37.50
2022-12-17T10:26:56.758Z,42.13
2022-12-17T10:28:24.843Z,37.15
2022-12-17T10:29:48.472Z,37.55
2022-12-17T10:31:10.103Z,29.05
2022-12-17T10:32:42.477Z,27.45
2022-12-17T10:34:04.277Z,25.42
2022-12-17T10:35:27.731Z,25.63
2022-12-17T10:36:48.835Z,28.65
2022-12-17T10:38:10.374Z,21.58
2022-12-17T10:39:43.168Z,25.38
2022-12-17T10:41:04.390Z,20.55
2022-12-17T10:42:46.124Z,26.75
2022-12-17T10:44:06.971Z,19.55
2022-12-17T10:45:57.211Z,19.13
2022-12-17T10:47:18.385Z,24.63
2022-12-17T10:48:49.993Z,19.95
2022-12-17T10:50:22.535Z,20.73
2022-12-17T10:51:50.547Z,21.73
2022-12-17T10:53:11.233Z,16.83
2022-12-17T10:54:49.937Z,13.93
2022-12-17T10:56:19.018Z,13.82
2022-12-17T10:57:49.536Z,16.65
2022-12-17T10:59:12.581Z,16.17
2022-12-17T11:00:50.043Z,15.48
2022-12-17T11:02:16.845Z,13.30
2022-12-17T11:03:50.109Z,12.45
2022-12-17T11:05:12.324Z,13.77
2022-12-17T11:06:46.908Z,23.67
2022-12-17T11:08:08.124Z,17.90
2022-12-17T11:09:56.525Z,19.55
2022-12-17T11:11:23.381Z,18.10
2022-12-17T11:12:56.852Z,17.67
2022-12-17T11:14:19.779Z,17.92
2022-12-17T11:15:56.662Z,16.17
2022-12-17T11:17:22.043Z,19.20
2022-12-17T11:18:58.130Z,13.48
2022-12-17T11:20:24.942Z,18.00
2022-12-17T11:21:51.529Z,17.33
2022-12-17T11:23:15.744Z,13.35
2022-12-17T11:24:43.654Z,15.10
2022-12-17T11:26:13.111Z,16.63
2022-12-17T11:27:39.978Z,11.95
2022-12-17T11:29:00.862Z,16.77
2022-12-17T11:30:33.733Z,14.07
2022-12-17T11:32:06.431Z,16.45
2022-12-17T11:33:52.755Z,16.50
2022-12-17T11:35:36.056Z,14.85
2022-12-17T11:37:07.108Z,15.52
2022-12-17T11:38:57.108Z,14.25
2022-12-17T11:40:30.194Z,14.57
2022-12-17T11:42:18.159Z,13.27
2022-12-17T11:43:47.848Z,15.57
2022-12-17T11:45:22.611Z,11.60
2022-12-17T11:47:04.726Z,14.70
2022-12-17T11:48:53.088Z,14.10
2022-12-17T11:50:34.726Z,16.33
2022-12-17T11:51:59.778Z,13.43
2022-12-17T11:53:27.952Z,17.48
2022-12-17T11:55:11.445Z,18.05
2022-12-17T11:56:53.403Z,17.55
2022-12-17T11:58:19.838Z,17.17
2022-12-17T11:59:51.129Z,15.75
2022-12-17T12:01:34.419Z,15.18
2022-12-17T12:03:29.580Z,19.92
2022-12-17T12:05:23.845Z,17.70
2022-12-17T12:07:02.081Z,15.95
2022-12-17T12:08:43.307Z,16.20
2022-12-17T12:10:16.155Z,21.50
2022-12-17T12:12:02.778Z,17.58
2022-12-17T12:14:03.518Z,23.25
2022-12-17T12:15:39.434Z,18.40
2022-12-17T12:17:18.266Z,19.38
2022-12-17T12:19:00.685Z,22.25
2022-12-17T12:20:43.340Z,18.98
2022-12-17T12:22:30.921Z,22.55
2022-12-17T12:24:13.588Z,22.02
2022-12-17T12:26:00.557Z,27.67
2022-12-17T12:27:49.804Z,28.63
2022-12-17T12:29:44.208Z,24.88
2022-12-17T12:31:17.637Z,20.45
2022-12-17T12:32:43.286Z,25.85
2022-12-17T12:34:12.972Z,25.63
2022-12-17T12:35:40.086Z,25.90
2022-12-17T12:37:04.242Z,23.52
2022-12-17T12:38:29.598Z,22.33
2022-12-17T12:40:05.676Z,22.23
2022-12-17T12:41:45.271Z,19.77
2022-12-17T12:43:19.449Z,17.38
2022-12-17T12:44:50.895Z,20.42
2022-12-17T12:46:21.154Z,18.75
2022-12-17T12:47:50.782Z,17.83
2022-12-17T12:49:22.684Z,17.33
2022-12-17T12:50:58.790Z,18.17
2022-12-17T12:52:20.351Z,20.30
2022-12-17T12:53:41.492Z,22.10
2022-12-17T12:55:04.937Z,19.88
2022-12-17T12:56:44.693Z,19.05
2022-12-17T12:58:17.999Z,17.90
2022-12-17T12:59:53.154Z,22.02
2022-12-17T13:01:28.186Z,19.98
2022-12-17T13:02:51.095Z,21.08
2022-12-17T13:04:14.315Z,17.08
2022-12-17T13:05:34.319Z,20.85
2022-12-17T13:06:54.171Z,26.00
2022-12-17T13:08:08.426Z,23.98
2022-12-17T13:09:16.881Z,24.70
2022-12-17T13:10:31.248Z,21.02
2022-12-17T13:11:38.585Z,22.33
2022-12-17T13:12:47.856Z,23.13
2022-12-17T13:13:56.450Z,24.70
2022-12-17T13:15:07.334Z,24.02
2022-12-17T13:16:42.618Z,18.60
2022-12-17T13:18:16.709Z,18.63
2022-12-17T13:19:39.804Z,25.10
2022-12-17T13:20:42.191Z,26.58
2022-12-17T13:21:44.559Z,26.90
2022-12-17T13:22:53.374Z,25.35
2022-12-17T13:23:55.984Z,25.15
2022-12-17T13:25:17.609Z,24.58
2022-12-17T13:26:25.595Z,23.98
2022-12-17T13:27:40.308Z,21.45
2022-12-17T13:28:44.420Z,26.10
2022-12-17T13:29:46.710Z,23.63
2022-12-17T13:30:48.998Z,21.65
2022-12-17T13:32:07.893Z,19.20
2022-12-17T13:33:42.499Z,19.92
2022-12-17T13:35:10.363Z,20.23
2022-12-17T13:36:20.768Z,23.17
2022-12-17T13:37:28.180Z,24.63
2022-12-17T13:39:05.317Z,19.00
2022-12-17T13:40:52.932Z,18.45
2022-12-17T13:41:58.012Z,19.15
2022-12-17T13:43:00.280Z,22.73
2022-12-17T13:44:17.590Z,22.90
2022-12-17T13:45:24.266Z,20.42
2022-12-17T13:46:47.402Z,18.05
2022-12-17T13:47:55.052Z,16.25
2022-12-17T13:49:06.574Z,17.45
2022-12-17T13:50:40.127Z,19.77
2022-12-17T13:51:42.412Z,21.40
2022-12-17T13:52:44.625Z,18.13
2022-12-17T13:54:17.087Z,25.42
2022-12-17T13:55:27.334Z,18.48
2022-12-17T13:56:33.883Z,23.83
2022-12-17T13:57:37.834Z,27.17
2022-12-17T13:58:42.761Z,19.88
2022-12-17T13:59:53.602Z,22.60
2022-12-17T14:01:10.115Z,24.33
2022-12-17T14:02:25.636Z,25.20
2022-12-17T14:03:49.928Z,21.17
2022-12-17T14:04:55.479Z,20.13
2022-12-17T14:06:00.284Z,15.27
2022-12-17T14:07:06.102Z,20.30
2022-12-17T14:08:09.104Z,20.40
2022-12-17T14:09:17.514Z,17.33
2022-12-17T14:10:21.346Z,21.98
2022-12-17T14:11:42.561Z,20.38
2022-12-17T14:12:45.036Z,20.60
2022-12-17T14:13:50.164Z,18.35
2022-12-17T14:15:03.383Z,18.50
2022-12-17T14:16:06.076Z,15.93
2022-12-17T14:17:20.995Z,14.85
2022-12-17T14:18:23.296Z,23.95
2022-12-17T14:19:27.197Z,15.90
2022-12-17T14:20:30.559Z,20.48
2022-12-17T14:21:33.023Z,16.90
2022-12-17T14:22:42.867Z,17.77
2022-12-17T14:23:50.065Z,16.13
2022-12-17T14:24:52.526Z,17.90
2022-12-17T14:25:55.218Z,23.38
2022-12-17T14:27:00.290Z,14.60
2022-12-17T14:28:30.626Z,20.40
2022-12-17T14:29:33.201Z,31.08
2022-12-17T14:31:02.944Z,22.25
2022-12-17T14:32:25.839Z,28.92
2022-12-17T14:33:33.789Z,23.38
2022-12-17T14:34:42.546Z,23.83
2022-12-17T14:35:52.264Z,29.45
2022-12-17T14:36:59.896Z,21.35
2022-12-17T14:38:02.212Z,25.77
2022-12-17T14:39:17.531Z,23.88
2022-12-17T14:40:20.424Z,25.33
2022-12-17T14:41:41.992Z,24.05
2022-12-17T14:42:44.637Z,23.38
2022-12-17T14:43:54.369Z,24.10
2022-12-17T14:44:59.587Z,21.75
2022-12-17T14:46:20.593Z,18.40
2022-12-17T14:47:29.251Z,20.08
2022-12-17T14:48:51.547Z,17.30
2022-12-17T14:50:02.731Z,16.55
2022-12-17T14:51:05.313Z,21.23
2022-12-17T14:52:14.494Z,21.63
2022-12-17T14:53:27.916Z,19.17
2022-12-17T14:54:30.806Z,22.95
2022-12-17T14:55:55.482Z,24.15
2022-12-17T14:57:05.720Z,23.35
2022-12-17T14:58:16.395Z,19.00
2022-12-17T14:59:38.801Z,23.38
2022-12-17T15:00:49.327Z,24.70
2022-12-17T15:01:56.116Z,21.83
2022-12-17T15:02:58.892Z,26.58
2022-12-17T15:04:03.075Z,25.00
2022-12-17T15:05:05.887Z,28.73
2022-12-17T15:06:11.459Z,22.10
2022-12-17T15:07:23.109Z,21.15
2022-12-17T15:08:25.843Z,23.10
2022-12-17T15:09:28.166Z,23.48
2022-12-17T15:10:30.512Z,17.55
2022-12-17T15:11:32.910Z,22.38
2022-12-17T15:12:35.168Z,22.63
2022-12-17T15:13:37.379Z,20.08
2022-12-17T15:14:39.696Z,18.88
2022-12-17T15:15:41.953Z,31.15
2022-12-17T15:16:44.577Z,23.70
2022-12-17T15:17:47.081Z,22.38
2022-12-17T15:18:49.786Z,20.70
2022-12-17T15:19:56.079Z,24.98
2022-12-17T15:20:59.287Z,20.00
2022-12-17T15:22:04.036Z,25.58
2022-12-17T15:23:06.248Z,24.20
2022-12-17T15:24:13.615Z,23.85
2022-12-17T15:25:17.853Z,21.33
2022-12-17T15:26:21.336Z,22.30
2022-12-17T15:27:23.631Z,23.85
2022-12-17T15:28:25.924Z,23.27
2022-12-17T15:29:28.959Z,21.92
2022-12-17T15:30:31.288Z,21.25
2022-12-17T15:31:35.679Z,22.27
2022-12-17T15:32:38.249Z,17.50
2022-12-17T15:33:41.401Z,20.58
2022-12-17T15:34:45.985Z,22.77
2022-12-17T15:35:48.284Z,25.73
2022-12-17T15:36:50.608Z,22.00
2022-12-17T15:37:53.048Z,19.35
2022-12-17T15:38:55.360Z,19.00
2022-12-17T15:39:57.579Z,17.75
2022-12-17T15:41:00.687Z,18.65
2022-12-17T15:42:21.478Z,18.38
2022-12-17T15:43:24.127Z,19.92
2022-12-17T15:44:26.891Z,20.02
2022-12-17T15:45:29.314Z,18.10
2022-12-17T15:46:31.906Z,22.77
2022-12-17T15:47:34.186Z,22.75
2022-12-17T15:48:37.530Z,20.30
2022-12-17T15:49:40.015Z,18.70
2022-12-17T15:50:42.396Z,18.38
2022-12-17T15:51:44.666Z,19.13
2022-12-17T15:52:46.955Z,21.45
2022-12-17T15:53:52.430Z,20.55
2022-12-17T15:54:54.648Z,21.02
2022-12-17T15:56:04.266Z,23.70
2022-12-17T15:57:06.503Z,23.42
2022-12-17T15:58:11.424Z,28.58
2022-12-17T15:59:13.643Z,27.02
2022-12-17T16:00:16.312Z,30.17
2022-12-17T16:01:20.360Z,26.98
2022-12-17T16:02:22.882Z,25.20
2022-12-17T16:03:25.357Z,29.25
2022-12-17T16:04:27.711Z,30.27
2022-12-17T16:05:29.932Z,27.70
2022-12-17T16:06:33.598Z,20.65
2022-12-17T16:07:37.889Z,24.48
2022-12-17T16:08:41.041Z,26.67
2022-12-17T16:09:43.454Z,23.45
2022-12-17T16:10:45.687Z,23.00
2022-12-17T16:11:47.890Z,20.98
2022-12-17T16:12:50.257Z,23.02
2022-12-17T16:13:56.517Z,22.92
2022-12-17T16:14:58.764Z,22.65
2022-12-17T16:16:04.118Z,19.80
2022-12-17T16:17:06.763Z,24.52
2022-12-17T16:18:09.067Z,22.77
2022-12-17T16:19:11.387Z,23.42
2022-12-17T16:20:13.702Z,21.63
2022-12-17T16:21:16.223Z,20.80
2022-12-17T16:22:18.508Z,18.88
2022-12-17T16:23:21.188Z,21.95
2022-12-17T16:24:23.493Z,22.20
2022-12-17T16:25:25.723Z,23.10
2022-12-17T16:26:28.020Z,30.38
2022-12-17T16:27:30.288Z,26.33
2022-12-17T16:28:32.752Z,27.38
2022-12-17T16:29:35.069Z,27.40
2022-12-17T16:30:37.391Z,27.80
2022-12-17T16:31:39.911Z,25.63
2022-12-17T16:32:42.192Z,25.67
2022-12-17T16:33:47.526Z,24.67
2022-12-17T16:34:49.745Z,23.65
2022-12-17T16:35:53.044Z,24.70
2022-12-17T16:36:55.294Z,24.02
2022-12-17T16:37:57.577Z,24.40
2022-12-17T16:38:59.903Z,27.10
2022-12-17T16:40:02.178Z,27.88
2022-12-17T16:41:04.601Z,25.00
2022-12-17T16:42:07.316Z,26.70
2022-12-17T16:43:10.493Z,21.55
2022-12-17T16:44:13.164Z,25.40
2022-12-17T16:45:15.514Z,21.08
2022-12-17T16:46:31.907Z,23.38
2022-12-17T16:47:34.547Z,22.20
2022-12-17T16:48:38.929Z,23.42
2022-12-17T16:49:41.643Z,17.75
2022-12-17T16:50:44.993Z,20.50
2022-12-17T16:51:49.798Z,25.45
2022-12-17T16:52:52.467Z,23.30
2022-12-17T16:53:54.725Z,23.48
2022-12-17T16:54:57.029Z,25.52
2022-12-17T16:55:59.220Z,25.83
2022-12-17T16:57:02.133Z,25.13
2022-12-17T16:58:04.374Z,27.55
2022-12-17T16:59:08.271Z,34.92
2022-12-17T17:00:11.284Z,33.63
2022-12-17T17:01:17.764Z,28.60
2022-12-17T17:02:20.267Z,30.10
2022-12-17T17:03:22.889Z,35.55
2022-12-17T17:04:25.403Z,30.25
2022-12-17T17:05:33.015Z,29.05
2022-12-17T17:06:55.616Z,27.67
2022-12-17T17:07:57.866Z,27.65
2022-12-17T17:09:02.781Z,27.63